createdAt,value
2022-12-19T00:00:32.117Z,12.16
2022-12-19T00:03:00.627Z,12.14
2022-12-19T00:05:29.136Z,12.10
2022-12-19T00:07:58.067Z,12.08
2022-12-19T00:10:27.786Z,12.06
2022-12-19T00:12:56.142Z,12.04
2022-12-19T00:15:24.608Z,12.00
2022-12-19T00:17:52.941Z,11.97
2022-12-19T00:20:21.272Z,11.93
2022-12-19T00:22:49.843Z,11.89
2022-12-19T00:25:24.292Z,11.87
2022-12-19T00:27:53.264Z,11.85
2022-12-19T00:30:21.551Z,11.79
2022-12-19T00:32:50.133Z,11.74
2022-12-19T00:35:18.786Z,11.71
2022-12-19T00:37:49.570Z,11.66
2022-12-19T00:40:18.589Z,11.60
2022-12-19T00:42:53.243Z,11.56
2022-12-19T00:45:22.666Z,11.51
2022-12-19T00:47:51.001Z,11.44
2022-12-19T00:50:19.280Z,11.39
2022-12-19T00:52:47.687Z,11.34
2022-12-19T00:55:19.029Z,11.27
2022-12-19T00:57:47.748Z,11.20
2022-12-19T01:00:19.537Z,11.17
2022-12-19T01:02:47.938Z,11.11
2022-12-19T01:05:16.381Z,11.06
2022-12-19T01:07:44.633Z,11.00
2022-12-19T01:10:12.876Z,10.93
2022-12-19T01:12:47.349Z,10.87
2022-12-19T01:15:21.561Z,10.81
2022-12-19T01:17:50.711Z,10.79
2022-12-19T01:20:29.979Z,10.77
2022-12-19T01:23:00.506Z,10.70
2022-12-19T01:25:29.363Z,10.63
2022-12-19T01:27:58.729Z,10.55
2022-12-19T01:30:29.244Z,10.47
2022-12-19T01:33:00.351Z,10.41
2022-12-19T01:35:29.441Z,10.34
2022-12-19T01:38:06.579Z,10.32
2022-12-19T01:40:37.743Z,10.32
2022-12-19T01:43:07.111Z,10.31
2022-12-19T01:45:45.342Z,10.29
2022-12-19T01:48:34.326Z,10.22
2022-12-19T01:51:27.782Z,10.21
2022-12-19T01:54:02.290Z,10.17
2022-12-19T01:56:35.636Z,10.13
2022-12-19T01:59:10.064Z,10.05
2022-12-19T02:01:51.164Z,9.94
2022-12-19T02:04:21.729Z,9.87
2022-12-19T02:06:51.387Z,9.79
2022-12-19T02:09:20.286Z,9.72
2022-12-19T02:11:48.597Z,9.65
2022-12-19T02:14:17.183Z,9.58
2022-12-19T02:17:26.644Z,9.49
2022-12-19T02:20:06.982Z,9.43
2022-12-19T02:23:12.114Z,9.40
2022-12-19T02:26:27.971Z,9.33
2022-12-19T02:29:25.206Z,9.31
2022-12-19T02:32:06.061Z,9.29
2022-12-19T02:35:08.314Z,9.25
2022-12-19T02:37:46.606Z,9.19
2022-12-19T02:40:40.613Z,9.08
2022-12-19T02:43:11.661Z,8.98
2022-12-19T02:45:42.508Z,8.93
2022-12-19T02:48:13.059Z,8.90
2022-12-19T02:50:50.180Z,8.85
2022-12-19T02:53:22.369Z,8.77
2022-12-19T02:56:10.419Z,8.66
2022-12-19T02:59:15.640Z,8.63
2022-12-19T03:01:51.263Z,8.61
2022-12-19T03:04:27.182Z,8.54
2022-12-19T03:07:37.096Z,8.49
2022-12-19T03:10:12.595Z,8.44
2022-12-19T03:12:52.137Z,8.42
2022-12-19T03:15:22.206Z,8.38
2022-12-19T03:17:50.942Z,8.34
2022-12-19T03:20:53.979Z,8.29
2022-12-19T03:23:22.976Z,8.24
2022-12-19T03:25:56.466Z,8.24
2022-12-19T03:28:35.641Z,8.24
2022-12-19T03:31:06.444Z,8.22
2022-12-19T03:33:36.570Z,8.20
2022-12-19T03:36:09.399Z,8.15
2022-12-19T03:38:39.655Z,8.09
2022-12-19T03:41:11.175Z,8.04
2022-12-19T03:43:41.411Z,8.00
2022-12-19T03:46:23.422Z,7.95
2022-12-19T03:48:54.334Z,7.91
2022-12-19T03:51:41.561Z,7.82
2022-12-19T03:54:20.257Z,7.75
2022-12-19T03:56:51.314Z,7.68
2022-12-19T03:59:32.933Z,7.63
2022-12-19T04:02:02.967Z,7.60
2022-12-19T04:04:35.019Z,7.50
2022-12-19T04:07:05.253Z,7.39
2022-12-19T04:09:35.176Z,7.32
2022-12-19T04:12:15.420Z,7.33
2022-12-19T04:14:44.460Z,7.34
2022-12-19T04:17:21.551Z,7.34
2022-12-19T04:20:13.061Z,7.31
2022-12-19T04:22:48.562Z,7.26
2022-12-19T04:25:23.969Z,7.22
2022-12-19T04:28:01.271Z,7.23
2022-12-19T04:30:29.900Z,7.28
2022-12-19T04:33:05.348Z,7.32
2022-12-19T04:35:36.755Z,7.35
2022-12-19T04:38:05.684Z,7.37
2022-12-19T04:40:41.239Z,7.38
2022-12-19T04:43:10.368Z,7.34
2022-12-19T04:45:38.827Z,7.29
2022-12-19T04:48:08.188Z,7.22
2022-12-19T04:50:37.846Z,7.17
2022-12-19T04:53:07.096Z,7.13
2022-12-19T04:55:35.675Z,7.08
2022-12-19T04:58:06.629Z,7.06
2022-12-19T05:00:35.820Z,7.06
2022-12-19T05:03:04.398Z,7.01
2022-12-19T05:05:32.921Z,7.00
2022-12-19T05:08:01.189Z,7.01
2022-12-19T05:10:29.487Z,6.95
2022-12-19T05:12:57.888Z,6.90
2022-12-19T05:15:26.201Z,6.84
2022-12-19T05:17:54.533Z,6.85
2022-12-19T05:20:23.016Z,6.85
2022-12-19T05:22:51.676Z,6.81
2022-12-19T05:25:19.981Z,6.77
2022-12-19T05:27:48.302Z,6.74
2022-12-19T05:30:16.797Z,6.72
2022-12-19T05:32:45.136Z,6.70
2022-12-19T05:35:13.566Z,6.67
2022-12-19T05:37:42.064Z,6.64
2022-12-19T05:40:11.189Z,6.62
2022-12-19T05:42:39.625Z,6.58
2022-12-19T05:45:08.562Z,6.56
2022-12-19T05:47:38.015Z,6.55
2022-12-19T05:50:07.173Z,6.52
2022-12-19T05:52:35.610Z,6.50
2022-12-19T05:55:04.232Z,6.45
2022-12-19T05:57:32.671Z,6.43
2022-12-19T06:00:01.199Z,6.40
2022-12-19T06:02:34.453Z,6.40
2022-12-19T06:05:02.806Z,6.38
2022-12-19T06:07:31.481Z,6.33
2022-12-19T06:09:59.879Z,6.30
2022-12-19T06:12:28.288Z,6.28
2022-12-19T06:14:56.592Z,6.29
2022-12-19T06:17:24.947Z,6.31
2022-12-19T06:19:53.285Z,6.30
2022-12-19T06:22:21.639Z,6.26
2022-12-19T06:24:50.040Z,6.18
2022-12-19T06:27:18.365Z,6.10
2022-12-19T06:29:46.656Z,6.04
2022-12-19T06:32:15.008Z,5.97
2022-12-19T06:37:31.643Z,5.84
2022-12-19T06:39:59.936Z,5.87
2022-12-19T06:42:28.390Z,5.88
2022-12-19T06:44:57.440Z,5.90
2022-12-19T06:47:26.519Z,5.85
2022-12-19T06:49:55.104Z,5.84
2022-12-19T06:52:23.462Z,5.83
2022-12-19T06:54:51.811Z,5.85
2022-12-19T06:57:20.130Z,5.85
2022-12-19T06:59:48.444Z,5.87
2022-12-19T07:02:28.677Z,5.85
2022-12-19T07:05:03.006Z,5.81
2022-12-19T07:07:31.478Z,5.80
2022-12-19T07:10:00.044Z,5.84
2022-12-19T07:12:28.441Z,5.90
2022-12-19T07:14:56.924Z,5.91
2022-12-19T07:17:26.956Z,5.86
2022-12-19T07:19:57.175Z,5.74
2022-12-19T07:22:27.798Z,5.67
2022-12-19T07:24:57.492Z,5.61
2022-12-19T07:27:31.743Z,5.60
2022-12-19T07:30:05.384Z,5.64
2022-12-19T07:32:33.669Z,5.71
2022-12-19T07:35:02.654Z,5.72
2022-12-19T07:37:31.002Z,5.68
2022-12-19T07:39:59.322Z,5.64
2022-12-19T07:42:32.291Z,5.54
2022-12-19T07:45:02.359Z,5.47
2022-12-19T07:47:30.823Z,5.39
2022-12-19T07:49:59.192Z,5.35
2022-12-19T07:52:27.810Z,5.34
2022-12-19T07:54:56.191Z,5.32
2022-12-19T07:57:24.534Z,5.29
2022-12-19T07:59:52.925Z,5.29
2022-12-19T08:02:21.301Z,5.30
2022-12-19T08:04:49.852Z,5.27
2022-12-19T08:07:18.366Z,5.25
2022-12-19T08:09:46.815Z,5.20
2022-12-19T08:12:15.138Z,5.13
2022-12-19T08:14:43.500Z,5.11
2022-12-19T08:17:20.355Z,5.10
2022-12-19T08:19:49.243Z,5.08
2022-12-19T08:22:17.722Z,5.09
2022-12-19T08:24:46.361Z,5.10
2022-12-19T08:27:14.682Z,5.06
2022-12-19T08:29:42.990Z,5.02
2022-12-19T08:32:15.635Z,4.99
2022-12-19T08:34:47.434Z,4.97
2022-12-19T08:37:15.857Z,4.92
2022-12-19T08:39:44.286Z,4.88
2022-12-19T08:42:12.612Z,4.87
2022-12-19T08:44:41.043Z,4.87
2022-12-19T08:47:10.533Z,4.85
2022-12-19T08:49:38.977Z,4.85
2022-12-19T08:52:07.287Z,4.88
2022-12-19T08:54:35.600Z,4.93
2022-12-19T08:57:03.967Z,4.98
2022-12-19T08:59:32.509Z,4.95
2022-12-19T09:02:02.209Z,4.96
2022-12-19T09:05:57.539Z,4.96
2022-12-19T09:07:19.316Z,4.97
2022-12-19T09:09:47.665Z,4.95
2022-12-19T09:12:17.679Z,4.95
2022-12-19T09:14:46.046Z,4.96
2022-12-19T09:17:14.769Z,4.97
2022-12-19T09:19:47.419Z,4.96
2022-12-19T09:22:17.085Z,4.94
2022-12-19T09:24:45.563Z,4.88
2022-12-19T09:27:14.657Z,4.80
2022-12-19T09:29:43.967Z,4.76
2022-12-19T09:32:12.306Z,4.70
2022-12-19T09:34:40.684Z,4.65
2022-12-19T09:37:16.292Z,4.62
2022-12-19T09:39:49.568Z,4.60
2022-12-19T09:42:29.412Z,4.62
2022-12-19T09:45:06.981Z,4.58
2022-12-19T09:47:43.649Z,4.56
2022-12-19T09:50:46.644Z,4.52
2022-12-19T09:53:37.024Z,4.50
2022-12-19T09:56:12.133Z,4.49
2022-12-19T09:58:50.989Z,4.47
2022-12-19T10:01:30.892Z,4.45
2022-12-19T10:04:13.567Z,4.43
2022-12-19T10:07:14.037Z,4.38
2022-12-19T10:12:11.411Z,4.36
2022-12-19T10:12:47.909Z,4.30
2022-12-19T10:15:36.585Z,4.28
2022-12-19T10:18:43.331Z,4.23
2022-12-19T10:21:42.957Z,4.21
2022-12-19T10:24:35.538Z,4.20
2022-12-19T10:27:23.858Z,4.18
2022-12-19T10:30:18.454Z,4.19
2022-12-19T10:32:52.639Z,4.16
2022-12-19T10:35:23.484Z,4.15
2022-12-19T10:38:13.111Z,4.16
2022-12-19T10:41:11.483Z,4.18
2022-12-19T10:43:51.821Z,4.17
2022-12-19T10:46:38.530Z,4.15
2022-12-19T10:49:35.946Z,4.11
2022-12-19T10:52:08.941Z,4.08
2022-12-19T10:54:41.939Z,4.04
2022-12-19T10:57:27.198Z,4.03
2022-12-19T11:00:21.526Z,4.02
2022-12-19T11:02:52.711Z,4.02
2022-12-19T11:05:26.106Z,4.02
2022-12-19T11:08:09.587Z,4.07
2022-12-19T11:12:17.945Z,4.11
2022-12-19T11:18:11.660Z,4.15
2022-12-19T11:21:49.131Z,4.07
2022-12-19T11:29:17.975Z,3.98
2022-12-19T11:29:32.817Z,3.94
2022-12-19T11:30:39.082Z,3.92
2022-12-19T11:30:48.179Z,3.90
2022-12-19T11:34:24.735Z,3.83
2022-12-19T11:37:01.572Z,3.81
2022-12-19T11:39:48.123Z,3.76
2022-12-19T11:43:41.530Z,3.74
2022-12-19T11:45:56.589Z,3.68
2022-12-19T11:48:42.688Z,3.67
2022-12-19T11:51:37.245Z,3.67
2022-12-19T11:54:16.614Z,3.61
2022-12-19T11:56:45.242Z,3.62
2022-12-19T11:59:25.930Z,3.61
2022-12-19T12:02:20.760Z,3.58
2022-12-19T12:05:01.272Z,3.54
2022-12-19T12:09:18.265Z,3.52
2022-12-19T12:16:38.704Z,3.50
2022-12-19T12:25:07.903Z,3.52
2022-12-19T12:26:43.841Z,3.53
2022-12-19T12:30:49.331Z,3.54
2022-12-19T12:31:40.620Z,3.53
2022-12-19T12:31:47.317Z,3.52
2022-12-19T12:32:06.523Z,3.49
2022-12-19T12:35:40.503Z,3.56
2022-12-19T12:37:03.540Z,3.57
2022-12-19T12:38:34.152Z,3.60
2022-12-19T12:41:05.987Z,3.61
2022-12-19T12:44:03.137Z,3.63
2022-12-19T12:46:43.330Z,3.62
2022-12-19T12:49:23.916Z,3.61
2022-12-19T12:51:53.269Z,3.56
2022-12-19T12:54:23.094Z,3.48
2022-12-19T12:56:51.452Z,3.44
2022-12-19T12:59:28.706Z,3.43
2022-12-19T13:02:19.057Z,3.44
2022-12-19T13:05:25.582Z,3.44
2022-12-19T13:07:55.338Z,3.42
2022-12-19T13:10:29.534Z,3.40
2022-12-19T13:13:14.638Z,3.41
2022-12-19T13:15:46.088Z,3.44
2022-12-19T13:18:32.898Z,3.43
2022-12-19T13:21:03.413Z,3.41
2022-12-19T13:23:31.774Z,3.40
2022-12-19T13:26:00.120Z,3.41
2022-12-19T13:28:28.460Z,3.40
2022-12-19T13:31:18.411Z,3.42
2022-12-19T13:33:56.084Z,3.40
2022-12-19T13:39:59.968Z,3.38
2022-12-19T13:40:32.514Z,3.38
2022-12-19T13:43:25.266Z,3.39
2022-12-19T13:46:03.589Z,3.40
2022-12-19T13:48:41.498Z,3.39
2022-12-19T13:51:11.796Z,3.36
2022-12-19T13:53:41.229Z,3.34
2022-12-19T13:56:21.262Z,3.34
2022-12-19T13:59:00.588Z,3.38
2022-12-19T14:01:35.004Z,3.39
2022-12-19T14:04:25.844Z,3.38
2022-12-19T14:07:20.125Z,3.32
2022-12-19T14:11:33.545Z,3.27
2022-12-19T14:13:47.550Z,3.26
2022-12-19T14:15:52.098Z,3.25
2022-12-19T14:18:44.286Z,3.26
2022-12-19T14:22:06.931Z,3.30
2022-12-19T14:24:23.945Z,3.27
2022-12-19T14:28:21.571Z,3.25
2022-12-19T14:30:30.702Z,3.24
2022-12-19T14:33:46.161Z,3.27
2022-12-19T14:36:06.158Z,3.30
2022-12-19T14:39:22.264Z,3.34
2022-12-19T14:42:01.954Z,3.31
2022-12-19T14:52:35.435Z,3.30
2022-12-19T14:54:01.313Z,3.29
2022-12-19T14:54:10.929Z,3.30
2022-12-19T14:54:50.610Z,3.30
2022-12-19T14:56:33.674Z,3.29
2022-12-19T14:59:18.585Z,3.34
2022-12-19T15:02:07.907Z,3.41
2022-12-19T15:04:50.972Z,3.48
2022-12-19T15:07:26.685Z,3.48
2022-12-19T15:11:05.356Z,3.48
2022-12-19T15:14:47.999Z,3.46
2022-12-19T15:16:31.677Z,3.43
2022-12-19T15:19:02.234Z,3.46
2022-12-19T15:21:32.297Z,3.44
2022-12-19T15:24:00.611Z,3.41
2022-12-19T15:26:49.325Z,3.39
2022-12-19T15:29:21.820Z,3.34
2022-12-19T15:31:50.954Z,3.36
2022-12-19T15:37:18.376Z,3.40
2022-12-19T15:39:46.837Z,3.43
2022-12-19T15:42:26.048Z,3.44
2022-12-19T15:44:57.354Z,3.46
2022-12-19T15:47:35.495Z,3.47
2022-12-19T15:50:15.875Z,3.49
2022-12-19T15:52:44.463Z,3.54
2022-12-19T15:55:18.046Z,3.57
2022-12-19T15:58:07.454Z,3.63
2022-12-19T16:00:38.279Z,3.65
2022-12-19T16:03:23.480Z,3.68
2022-12-19T16:05:53.941Z,3.72
2022-12-19T16:08:27.163Z,3.81
2022-12-19T16:11:01.472Z,3.84
2022-12-19T16:13:35.587Z,3.89
2022-12-19T16:16:11.237Z,3.95
2022-12-19T16:18:43.931Z,4.02
2022-12-19T16:21:34.559Z,4.09
2022-12-19T16:24:03.065Z,4.14
2022-12-19T16:26:41.565Z,4.22
2022-12-19T16:29:24.595Z,4.25
2022-12-19T16:31:54.072Z,4.30
2022-12-19T16:34:25.096Z,4.38
2022-12-19T16:36:53.720Z,4.44
2022-12-19T16:39:22.046Z,4.47
2022-12-19T16:41:50.983Z,4.50
2022-12-19T16:44:21.901Z,4.55
2022-12-19T16:46:51.723Z,4.61
2022-12-19T16:49:23.810Z,4.66
2022-12-19T16:51:52.768Z,4.73
2022-12-19T16:54:22.149Z,4.79
2022-12-19T16:56:57.683Z,4.88
2022-12-19T16:59:32.609Z,4.97
2022-12-19T17:02:02.023Z,5.05
2022-12-19T17:04:31.010Z,5.13
2022-12-19T17:07:00.105Z,5.26
2022-12-19T17:09:28.464Z,5.38
2022-12-19T17:12:02.486Z,5.45
2022-12-19T17:14:35.573Z,5.54
2022-12-19T17:17:07.322Z,5.67
2022-12-19T17:19:39.921Z,5.73
2022-12-19T17:22:14.232Z,5.79
2022-12-19T17:24:42.816Z,5.83
2022-12-19T17:27:11.332Z,5.93
2022-12-19T17:29:42.049Z,6.01
2022-12-19T17:32:23.617Z,6.05
2022-12-19T17:34:53.722Z,6.14
2022-12-19T17:37:22.592Z,6.23
2022-12-19T17:39:50.925Z,6.30
2022-12-19T17:42:27.916Z,6.46
2022-12-19T17:44:59.182Z,6.61
2022-12-19T17:47:30.351Z,6.79
2022-12-19T17:49:58.613Z,6.91
2022-12-19T17:52:26.973Z,6.90
2022-12-19T17:54:55.491Z,6.90
2022-12-19T17:57:24.044Z,6.92
2022-12-19T17:59:52.299Z,6.98
2022-12-19T18:02:22.491Z,7.03
2022-12-19T18:04:52.139Z,7.10
2022-12-19T18:07:21.079Z,7.15
2022-12-19T18:09:49.396Z,7.24
2022-12-19T18:12:17.737Z,7.32
2022-12-19T18:14:46.128Z,7.38
2022-12-19T18:17:17.243Z,7.49
2022-12-19T18:19:45.608Z,7.54
2022-12-19T18:22:15.168Z,7.48
2022-12-19T18:24:43.818Z,7.41
2022-12-19T18:27:12.552Z,7.42
2022-12-19T18:29:41.106Z,7.46
2022-12-19T18:32:19.811Z,7.46
2022-12-19T18:34:48.249Z,7.48
2022-12-19T18:37:17.068Z,7.51
2022-12-19T18:39:45.377Z,7.52
2022-12-19T18:42:23.328Z,7.58
2022-12-19T18:44:51.645Z,7.64
2022-12-19T18:47:24.470Z,7.70
2022-12-19T18:49:53.676Z,7.78
2022-12-19T18:52:22.043Z,7.81
2022-12-19T18:54:50.363Z,7.84
2022-12-19T18:57:18.634Z,7.92
2022-12-19T18:59:48.455Z,8.02
2022-12-19T19:02:28.437Z,8.13
2022-12-19T19:04:57.427Z,8.23
2022-12-19T19:07:25.887Z,8.34
2022-12-19T19:09:54.220Z,8.42
2022-12-19T19:12:22.970Z,8.53
2022-12-19T19:14:53.085Z,8.62
2022-12-19T19:17:30.050Z,8.71
2022-12-19T19:19:58.544Z,8.80
2022-12-19T19:22:27.008Z,8.81
2022-12-19T19:24:55.450Z,8.81
2022-12-19T19:27:23.819Z,8.82
2022-12-19T19:29:52.773Z,8.88
2022-12-19T19:32:21.274Z,8.93
2022-12-19T19:34:50.659Z,8.96
2022-12-19T19:37:19.310Z,8.98
2022-12-19T19:39:48.746Z,8.97
2022-12-19T19:42:19.632Z,9.05
2022-12-19T19:44:47.979Z,9.10
2022-12-19T19:47:17.209Z,9.18
2022-12-19T19:49:45.648Z,9.22
2022-12-19T19:52:14.031Z,9.26
2022-12-19T19:54:42.276Z,9.23
2022-12-19T19:57:10.643Z,9.18
2022-12-19T19:59:38.989Z,9.18
2022-12-19T20:02:09.449Z,9.18
2022-12-19T20:04:39.085Z,9.28
2022-12-19T20:07:08.095Z,9.37
2022-12-19T20:09:36.473Z,9.44
2022-12-19T20:12:05.238Z,9.51
2022-12-19T20:14:33.569Z,9.57
2022-12-19T20:17:01.842Z,9.67
2022-12-19T20:19:30.206Z,9.76
2022-12-19T20:21:59.494Z,9.84
2022-12-19T20:24:28.205Z,9.88
2022-12-19T20:26:56.616Z,9.93
2022-12-19T20:29:25.407Z,10.03
2022-12-19T20:31:53.872Z,10.06
2022-12-19T20:34:22.238Z,10.13
2022-12-19T20:36:50.732Z,10.22
2022-12-19T20:39:22.913Z,10.23
2022-12-19T20:41:52.845Z,10.21
2022-12-19T20:44:24.332Z,10.23
2022-12-19T20:46:54.048Z,10.29
2022-12-19T20:49:27.290Z,10.33
2022-12-19T20:51:55.726Z,10.38
2022-12-19T20:54:24.605Z,10.46
2022-12-19T20:56:52.930Z,10.54
2022-12-19T20:59:21.388Z,10.60
2022-12-19T21:01:49.851Z,10.64
2022-12-19T21:04:18.455Z,10.72
2022-12-19T21:06:46.844Z,10.79
2022-12-19T21:09:15.154Z,10.86
2022-12-19T21:11:43.486Z,10.92
2022-12-19T21:14:12.835Z,10.92
2022-12-19T21:16:41.199Z,10.91
2022-12-19T21:19:09.703Z,10.86
2022-12-19T21:21:38.015Z,10.80
2022-12-19T21:24:06.835Z,10.85
2022-12-19T21:26:35.229Z,10.90
2022-12-19T21:29:03.680Z,10.98
2022-12-19T21:31:32.488Z,10.99
2022-12-19T21:34:03.099Z,11.00
2022-12-19T21:36:32.515Z,10.97
2022-12-19T21:39:03.238Z,10.92
2022-12-19T21:41:32.534Z,10.84
2022-12-19T21:44:01.522Z,10.84
2022-12-19T21:46:33.834Z,10.86
2022-12-19T21:49:04.111Z,10.89
2022-12-19T21:51:33.515Z,10.89
2022-12-19T21:54:04.316Z,10.88
2022-12-19T21:56:39.816Z,10.97
2022-12-19T21:59:14.627Z,11.11
2022-12-19T22:01:44.742Z,11.20
2022-12-19T22:04:21.713Z,11.26
2022-12-19T22:06:51.491Z,11.33
2022-12-19T22:09:23.493Z,11.31
2022-12-19T22:11:51.966Z,11.31
2022-12-19T22:14:20.327Z,11.36
2022-12-19T22:16:48.796Z,11.47
2022-12-19T22:19:18.955Z,11.54
2022-12-19T22:21:48.388Z,11.68
2022-12-19T22:24:18.314Z,11.80
2022-12-19T22:26:46.807Z,11.77
2022-12-19T22:29:18.126Z,11.73
2022-12-19T22:31:48.000Z,11.67
2022-12-19T22:34:19.656Z,11.61
2022-12-19T22:36:49.954Z,11.50
2022-12-19T22:39:20.386Z,11.42
2022-12-19T22:41:49.240Z,11.41
2022-12-19T22:44:20.723Z,11.39
2022-12-19T22:46:49.732Z,11.37
2022-12-19T22:49:18.810Z,11.36
2022-12-19T22:51:47.236Z,11.32
2022-12-19T22:54:15.819Z,11.26
2022-12-19T22:56:44.383Z,11.24
2022-12-19T22:59:13.904Z,11.22
2022-12-19T23:01:44.242Z,11.23
2022-12-19T23:04:16.050Z,11.22
2022-12-19T23:06:45.377Z,11.17
2022-12-19T23:09:17.001Z,11.14
2022-12-19T23:11:48.612Z,11.18
2022-12-19T23:14:18.904Z,11.18
2022-12-19T23:16:47.739Z,11.11
2022-12-19T23:19:17.378Z,11.04
2022-12-19T23:21:46.015Z,11.04
2022-12-19T23:24:14.724Z,11.05
2022-12-19T23:26:43.409Z,11.04
2022-12-19T23:29:14.370Z,10.92
2022-12-19T23:31:45.772Z,10.82
2022-12-19T23:34:15.153Z,10.74
2022-12-19T23:37:13.116Z,10.57
2022-12-19T23:39:31.983Z,10.50
2022-12-19T23:42:00.717Z,10.47
2022-12-19T23:44:29.434Z,10.45
2022-12-19T23:47:02.901Z,10.41
2022-12-19T23:49:33.646Z,10.38
2022-12-19T23:52:02.423Z,10.38
2022-12-19T23:54:30.869Z,10.40
2022-12-19T23:56:59.357Z,10.41
2022-12-19T23:59:28.062Z,10.37
